sensor_id;sensor_type;location;lat;lon;timestamp;P1;durP1;ratioP1;P2;durP2;ratioP2
12721;SDS011;6425;50.316;8.114;2022-08-19T00:00:17;31.13;;;26.67;;
12721;SDS011;6425;50.316;8.114;2022-08-19T00:05:18;34.67;;;27.50;;
12721;SDS011;6425;50.316;8.114;2022-08-19T00:10:21;34.23;;;26.07;;
12721;SDS011;6425;50.316;8.114;2022-08-19T00:15:21;31.47;;;25.97;;
12721;SDS011;6425;50.316;8.114;2022-08-19T00:20:22;28.97;;;25.83;;
12721;SDS011;6425;50.316;8.114;2022-08-19T00:25:25;31.20;;;27.83;;
12721;SDS011;6425;50.316;8.114;2022-08-19T00:30:26;27.03;;;24.13;;
12721;SDS011;6425;50.316;8.114;2022-08-19T00:35:26;31.47;;;25.33;;
12721;SDS011;6425;50.316;8.114;2022-08-19T00:40:28;31.33;;;25.40;;
12721;SDS011;6425;50.316;8.114;2022-08-19T00:45:30;32.07;;;26.13;;
12721;SDS011;6425;50.316;8.114;2022-08-19T00:50:31;32.17;;;26.53;;
12721;SDS011;6425;50.316;8.114;2022-08-19T00:55:34;33.90;;;28.40;;
12721;SDS011;6425;50.316;8.114;2022-08-19T01:00:35;32.77;;;28.50;;
12721;SDS011;6425;50.316;8.114;2022-08-19T01:05:36;31.80;;;28.23;;
12721;SDS011;6425;50.316;8.114;2022-08-19T01:10:43;34.27;;;29.33;;
12721;SDS011;6425;50.316;8.114;2022-08-19T01:15:48;36.43;;;30.87;;
12721;SDS011;6425;50.316;8.114;2022-08-19T01:20:52;32.63;;;28.73;;
12721;SDS011;6425;50.316;8.114;2022-08-19T01:25:57;31.37;;;27.47;;
12721;SDS011;6425;50.316;8.114;2022-08-19T01:30:57;32.80;;;27.47;;
12721;SDS011;6425;50.316;8.114;2022-08-19T01:36:03;37.30;;;29.20;;
12721;SDS011;6425;50.316;8.114;2022-08-19T01:41:07;32.67;;;28.73;;
12721;SDS011;6425;50.316;8.114;2022-08-19T01:46:07;32.93;;;27.87;;
12721;SDS011;6425;50.316;8.114;2022-08-19T01:51:08;32.07;;;27.23;;
12721;SDS011;6425;50.316;8.114;2022-08-19T01:56:11;30.37;;;26.80;;
12721;SDS011;6425;50.316;8.114;2022-08-19T02:01:12;34.27;;;26.67;;
12721;SDS011;6425;50.316;8.114;2022-08-19T02:06:12;32.63;;;27.30;;
12721;SDS011;6425;50.316;8.114;2022-08-19T02:11:19;29.57;;;25.23;;
12721;SDS011;6425;50.316;8.114;2022-08-19T02:16:21;28.87;;;24.93;;
12721;SDS011;6425;50.316;8.114;2022-08-19T02:21:25;31.20;;;25.10;;
12721;SDS011;6425;50.316;8.114;2022-08-19T02:26:26;26.73;;;23.83;;
12721;SDS011;6425;50.316;8.114;2022-08-19T02:31:27;29.00;;;25.90;;
12721;SDS011;6425;50.316;8.114;2022-08-19T02:36:28;27.00;;;23.77;;
12721;SDS011;6425;50.316;8.114;2022-08-19T02:41:30;27.87;;;23.87;;
12721;SDS011;6425;50.316;8.114;2022-08-19T02:46:32;28.30;;;24.60;;
12721;SDS011;6425;50.316;8.114;2022-08-19T02:51:34;26.20;;;23.40;;
12721;SDS011;6425;50.316;8.114;2022-08-19T02:56:38;26.53;;;23.13;;
12721;SDS011;6425;50.316;8.114;2022-08-19T03:01:41;26.80;;;23.00;;
12721;SDS011;6425;50.316;8.114;2022-08-19T03:06:44;26.30;;;22.80;;
12721;SDS011;6425;50.316;8.114;2022-08-19T03:11:48;23.77;;;21.17;;
12721;SDS011;6425;50.316;8.114;2022-08-19T03:16:51;27.07;;;20.83;;
12721;SDS011;6425;50.316;8.114;2022-08-19T03:21:52;24.70;;;21.90;;
12721;SDS011;6425;50.316;8.114;2022-08-19T03:26:54;23.13;;;19.87;;
12721;SDS011;6425;50.316;8.114;2022-08-19T03:31:55;24.50;;;20.17;;
12721;SDS011;6425;50.316;8.114;2022-08-19T03:36:56;22.90;;;20.03;;
12721;SDS011;6425;50.316;8.114;2022-08-19T03:42:00;24.97;;;21.30;;
12721;SDS011;6425;50.316;8.114;2022-08-19T03:47:00;25.57;;;22.03;;
12721;SDS011;6425;50.316;8.114;2022-08-19T03:52:01;29.47;;;22.30;;
12721;SDS011;6425;50.316;8.114;2022-08-19T03:57:03;27.00;;;23.23;;
12721;SDS011;6425;50.316;8.114;2022-08-19T04:02:07;27.07;;;23.43;;
12721;SDS011;6425;50.316;8.114;2022-08-19T04:07:09;0.00;;;0.00;;
12721;SDS011;6425;50.316;8.114;2022-08-19T04:12:13;20.87;;;18.00;;
12721;SDS011;6425;50.316;8.114;2022-08-19T04:17:13;23.93;;;21.43;;
12721;SDS011;6425;50.316;8.114;2022-08-19T04:22:14;27.77;;;23.70;;
12721;SDS011;6425;50.316;8.114;2022-08-19T04:27:16;27.77;;;22.97;;
12721;SDS011;6425;50.316;8.114;2022-08-19T04:32:16;27.47;;;22.73;;
12721;SDS011;6425;50.316;8.114;2022-08-19T04:37:17;27.10;;;22.63;;
12721;SDS011;6425;50.316;8.114;2022-08-19T04:42:19;26.03;;;22.27;;
12721;SDS011;6425;50.316;8.114;2022-08-19T04:47:19;30.47;;;24.37;;
12721;SDS011;6425;50.316;8.114;2022-08-19T04:52:20;28.70;;;24.30;;
12721;SDS011;6425;50.316;8.114;2022-08-19T04:57:21;32.37;;;25.63;;
12721;SDS011;6425;50.316;8.114;2022-08-19T05:02:22;32.60;;;25.03;;
12721;SDS011;6425;50.316;8.114;2022-08-19T05:07:23;31.30;;;26.03;;
12721;SDS011;6425;50.316;8.114;2022-08-19T05:12:25;29.40;;;24.53;;
12721;SDS011;6425;50.316;8.114;2022-08-19T05:17:26;30.83;;;22.30;;
12721;SDS011;6425;50.316;8.114;2022-08-19T05:22:27;29.67;;;24.60;;
12721;SDS011;6425;50.316;8.114;2022-08-19T05:27:29;26.83;;;23.13;;
12721;SDS011;6425;50.316;8.114;2022-08-19T05:32:29;27.87;;;24.80;;
12721;SDS011;6425;50.316;8.114;2022-08-19T05:37:30;29.37;;;25.33;;
12721;SDS011;6425;50.316;8.114;2022-08-19T05:42:32;32.47;;;24.10;;
12721;SDS011;6425;50.316;8.114;2022-08-19T05:47:32;30.57;;;25.70;;
12721;SDS011;6425;50.316;8.114;2022-08-19T05:52:34;27.43;;;24.20;;
12721;SDS011;6425;50.316;8.114;2022-08-19T05:57:38;30.80;;;25.80;;
12721;SDS011;6425;50.316;8.114;2022-08-19T06:02:39;30.23;;;25.90;;
12721;SDS011;6425;50.316;8.114;2022-08-19T06:07:41;31.70;;;25.40;;
12721;SDS011;6425;50.316;8.114;2022-08-19T06:12:42;29.93;;;24.93;;
12721;SDS011;6425;50.316;8.114;2022-08-19T06:17:43;30.20;;;24.57;;
12721;SDS011;6425;50.316;8.114;2022-08-19T06:22:46;26.43;;;23.13;;
12721;SDS011;6425;50.316;8.114;2022-08-19T06:27:49;27.60;;;23.60;;
12721;SDS011;6425;50.316;8.114;2022-08-19T06:32:49;28.57;;;23.70;;
12721;SDS011;6425;50.316;8.114;2022-08-19T06:37:50;27.37;;;24.27;;
12721;SDS011;6425;50.316;8.114;2022-08-19T06:42:52;29.73;;;23.90;;
12721;SDS011;6425;50.316;8.114;2022-08-19T06:47:52;34.20;;;26.17;;
12721;SDS011;6425;50.316;8.114;2022-08-19T06:52:53;33.20;;;24.97;;
12721;SDS011;6425;50.316;8.114;2022-08-19T06:57:55;29.17;;;24.37;;
12721;SDS011;6425;50.316;8.114;2022-08-19T07:02:55;29.67;;;24.80;;
12721;SDS011;6425;50.316;8.114;2022-08-19T07:07:55;26.53;;;23.20;;
12721;SDS011;6425;50.316;8.114;2022-08-19T07:12:57;28.07;;;22.90;;
12721;SDS011;6425;50.316;8.114;2022-08-19T07:17:58;29.73;;;23.87;;
12721;SDS011;6425;50.316;8.114;2022-08-19T07:22:58;26.30;;;23.43;;
12721;SDS011;6425;50.316;8.114;2022-08-19T07:28:00;31.27;;;24.23;;
12721;SDS011;6425;50.316;8.114;2022-08-19T07:33:01;30.93;;;25.07;;
12721;SDS011;6425;50.316;8.114;2022-08-19T07:38:02;31.63;;;26.57;;
12721;SDS011;6425;50.316;8.114;2022-08-19T07:43:04;36.83;;;28.87;;
12721;SDS011;6425;50.316;8.114;2022-08-19T07:48:05;35.70;;;30.07;;
12721;SDS011;6425;50.316;8.114;2022-08-19T07:53:05;32.83;;;27.43;;
12721;SDS011;6425;50.316;8.114;2022-08-19T07:58:07;35.57;;;30.13;;
12721;SDS011;6425;50.316;8.114;2022-08-19T08:03:08;32.23;;;27.37;;
12721;SDS011;6425;50.316;8.114;2022-08-19T08:08:08;35.63;;;25.87;;
12721;SDS011;6425;50.316;8.114;2022-08-19T08:13:10;32.80;;;26.27;;
12721;SDS011;6425;50.316;8.114;2022-08-19T08:18:11;32.33;;;26.80;;
12721;SDS011;6425;50.316;8.114;2022-08-19T08:23:11;36.40;;;31.50;;
12721;SDS011;6425;50.316;8.114;2022-08-19T08:28:13;40.67;;;32.83;;
12721;SDS011;6425;50.316;8.114;2022-08-19T08:33:14;37.27;;;31.63;;
12721;SDS011;6425;50.316;8.114;2022-08-19T08:38:17;42.53;;;33.03;;
12721;SDS011;6425;50.316;8.114;2022-08-19T08:43:21;37.50;;;33.00;;
12721;SDS011;6425;50.316;8.114;2022-08-19T08:48:25;37.77;;;33.87;;
12721;SDS011;6425;50.316;8.114;2022-08-19T08:53:34;37.67;;;32.07;;
12721;SDS011;6425;50.316;8.114;2022-08-19T08:58:39;35.73;;;31.83;;
12721;SDS011;6425;50.316;8.114;2022-08-19T09:03:47;32.57;;;29.07;;
12721;SDS011;6425;50.316;8.114;2022-08-19T09:08:49;32.07;;;28.67;;
12721;SDS011;6425;50.316;8.114;2022-08-19T09:14:02;32.83;;;28.00;;
12721;SDS011;6425;50.316;8.114;2022-08-19T09:19:11;32.50;;;26.20;;
12721;SDS011;6425;50.316;8.114;2022-08-19T09:24:12;30.70;;;26.63;;
12721;SDS011;6425;50.316;8.114;2022-08-19T09:29:14;30.77;;;25.63;;
12721;SDS011;6425;50.316;8.114;2022-08-19T09:34:15;27.50;;;23.67;;
12721;SDS011;6425;50.316;8.114;2022-08-19T09:39:15;26.27;;;23.70;;
12721;SDS011;6425;50.316;8.114;2022-08-19T09:44:17;26.27;;;23.40;;
12721;SDS011;6425;50.316;8.114;2022-08-19T09:49:18;25.40;;;22.67;;
12721;SDS011;6425;50.316;8.114;2022-08-19T09:54:20;26.40;;;23.53;;
12721;SDS011;6425;50.316;8.114;2022-08-19T09:59:22;25.73;;;21.93;;
12721;SDS011;6425;50.316;8.114;2022-08-19T10:04:22;26.03;;;23.30;;
12721;SDS011;6425;50.316;8.114;2022-08-19T10:09:23;19.37;;;17.53;;
12721;SDS011;6425;50.316;8.114;2022-08-19T10:14:25;21.80;;;19.60;;
12721;SDS011;6425;50.316;8.114;2022-08-19T10:19:26;21.27;;;19.30;;
12721;SDS011;6425;50.316;8.114;2022-08-19T10:24:26;20.17;;;18.07;;
12721;SDS011;6425;50.316;8.114;2022-08-19T10:29:28;14.97;;;13.50;;
12721;SDS011;6425;50.316;8.114;2022-08-19T10:34:30;16.47;;;14.97;;
12721;SDS011;6425;50.316;8.114;2022-08-19T10:39:31;14.00;;;12.80;;
12721;SDS011;6425;50.316;8.114;2022-08-19T10:44:35;13.17;;;12.07;;
12721;SDS011;6425;50.316;8.114;2022-08-19T10:49:36;13.27;;;12.13;;
12721;SDS011;6425;50.316;8.114;2022-08-19T10:54:36;10.90;;;9.80;;
12721;SDS011;6425;50.316;8.114;2022-08-19T10:59:38;10.17;;;9.37;;
12721;SDS011;6425;50.316;8.114;2022-08-19T11:04:39;9.00;;;8.27;;
12721;SDS011;6425;50.316;8.114;2022-08-19T11:09:41;10.07;;;9.07;;
12721;SDS011;6425;50.316;8.114;2022-08-19T11:14:43;10.20;;;9.40;;
12721;SDS011;6425;50.316;8.114;2022-08-19T11:19:44;9.40;;;8.70;;
12721;SDS011;6425;50.316;8.114;2022-08-19T11:24:44;7.93;;;7.33;;
12721;SDS011;6425;50.316;8.114;2022-08-19T11:29:46;8.50;;;7.57;;
12721;SDS011;6425;50.316;8.114;2022-08-19T11:34:47;6.77;;;6.27;;
12721;SDS011;6425;50.316;8.114;2022-08-19T11:39:47;7.57;;;7.07;;
12721;SDS011;6425;50.316;8.114;2022-08-19T11:44:49;8.57;;;7.87;;
12721;SDS011;6425;50.316;8.114;2022-08-19T11:49:50;7.77;;;7.07;;
12721;SDS011;6425;50.316;8.114;2022-08-19T11:54:51;7.17;;;6.53;;
12721;SDS011;6425;50.316;8.114;2022-08-19T11:59:53;7.77;;;7.27;;
12721;SDS011;6425;50.316;8.114;2022-08-19T12:04:53;8.33;;;7.73;;
12721;SDS011;6425;50.316;8.114;2022-08-19T12:09:54;8.57;;;6.87;;
12721;SDS011;6425;50.316;8.114;2022-08-19T12:14:59;6.77;;;6.37;;
12721;SDS011;6425;50.316;8.114;2022-08-19T12:19:59;8.60;;;7.80;;
12721;SDS011;6425;50.316;8.114;2022-08-19T12:25:00;8.33;;;6.60;;
12721;SDS011;6425;50.316;8.114;2022-08-19T12:30:02;7.63;;;7.13;;
12721;SDS011;6425;50.316;8.114;2022-08-19T12:35:04;7.70;;;7.00;;
12721;SDS011;6425;50.316;8.114;2022-08-19T12:40:07;6.90;;;6.17;;
12721;SDS011;6425;50.316;8.114;2022-08-19T12:45:10;9.90;;;9.00;;
12721;SDS011;6425;50.316;8.114;2022-08-19T12:50:11;9.33;;;8.63;;
12721;SDS011;6425;50.316;8.114;2022-08-19T12:55:12;9.80;;;8.90;;
12721;SDS011;6425;50.316;8.114;2022-08-19T13:00:16;8.33;;;7.63;;
12721;SDS011;6425;50.316;8.114;2022-08-19T13:05:21;9.97;;;9.17;;
12721;SDS011;6425;50.316;8.114;2022-08-19T13:10:24;7.40;;;6.70;;
12721;SDS011;6425;50.316;8.114;2022-08-19T13:15:38;5.90;;;5.50;;
12721;SDS011;6425;50.316;8.114;2022-08-19T13:20:40;7.57;;;7.03;;
12721;SDS011;6425;50.316;8.114;2022-08-19T13:25:41;7.23;;;6.50;;
12721;SDS011;6425;50.316;8.114;2022-08-19T13:30:46;7.53;;;7.03;;
12721;SDS011;6425;50.316;8.114;2022-08-19T13:35:48;8.90;;;8.20;;
12721;SDS011;6425;50.316;8.114;2022-08-19T13:40:50;9.00;;;8.30;;
12721;SDS011;6425;50.316;8.114;2022-08-19T13:45:55;9.13;;;8.33;;
12721;SDS011;6425;50.316;8.114;2022-08-19T13:50:55;8.93;;;8.20;;
12721;SDS011;6425;50.316;8.114;2022-08-19T13:55:56;6.83;;;6.23;;
12721;SDS011;6425;50.316;8.114;2022-08-19T14:00:58;7.37;;;6.63;;
12721;SDS011;6425;50.316;8.114;2022-08-19T14:05:59;9.00;;;8.40;;
12721;SDS011;6425;50.316;8.114;2022-08-19T14:11:00;7.70;;;7.07;;
12721;SDS011;6425;50.316;8.114;2022-08-19T14:16:02;7.63;;;6.93;;
12721;SDS011;6425;50.316;8.114;2022-08-19T14:21:07;8.17;;;7.57;;
12721;SDS011;6425;50.316;8.114;2022-08-19T14:26:15;9.00;;;8.27;;
12721;SDS011;6425;50.316;8.114;2022-08-19T14:31:18;8.50;;;8.00;;
12721;SDS011;6425;50.316;8.114;2022-08-19T14:36:19;10.60;;;8.93;;
12721;SDS011;6425;50.316;8.114;2022-08-19T14:41:21;8.90;;;8.10;;
12721;SDS011;6425;50.316;8.114;2022-08-19T14:46:25;8.97;;;8.27;;
12721;SDS011;6425;50.316;8.114;2022-08-19T14:51:27;9.10;;;8.33;;
12721;SDS011;6425;50.316;8.114;2022-08-19T14:56:28;11.07;;;8.47;;
12721;SDS011;6425;50.316;8.114;2022-08-19T15:01:31;10.90;;;10.10;;
12721;SDS011;6425;50.316;8.114;2022-08-19T15:06:32;10.47;;;9.77;;
12721;SDS011;6425;50.316;8.114;2022-08-19T15:11:32;10.43;;;9.63;;
12721;SDS011;6425;50.316;8.114;2022-08-19T15:16:34;10.33;;;9.27;;
12721;SDS011;6425;50.316;8.114;2022-08-19T15:21:35;9.13;;;8.43;;
12721;SDS011;6425;50.316;8.114;2022-08-19T15:26:35;10.97;;;9.00;;
12721;SDS011;6425;50.316;8.114;2022-08-19T15:31:37;8.60;;;8.00;;
12721;SDS011;6425;50.316;8.114;2022-08-19T15:36:38;8.50;;;7.80;;
12721;SDS011;6425;50.316;8.114;2022-08-19T15:41:38;7.30;;;6.60;;
12721;SDS011;6425;50.316;8.114;2022-08-19T15:46:43;8.87;;;8.27;;
12721;SDS011;6425;50.316;8.114;2022-08-19T15:51:46;9.00;;;7.80;;
12721;SDS011;6425;50.316;8.114;2022-08-19T15:56:48;7.70;;;7.23;;
12721;SDS011;6425;50.316;8.114;2022-08-19T16:01:51;7.70;;;7.13;;
12721;SDS011;6425;50.316;8.114;2022-08-19T16:06:52;9.87;;;9.17;;
12721;SDS011;6425;50.316;8.114;2022-08-19T16:11:54;9.27;;;8.47;;
12721;SDS011;6425;50.316;8.114;2022-08-19T16:16:56;10.60;;;9.67;;
12721;SDS011;6425;50.316;8.114;2022-08-19T16:21:57;9.83;;;9.00;;
12721;SDS011;6425;50.316;8.114;2022-08-19T16:26:58;10.47;;;8.93;;
12721;SDS011;6425;50.316;8.114;2022-08-19T16:32:00;8.30;;;7.80;;
12721;SDS011;6425;50.316;8.114;2022-08-19T16:37:00;6.20;;;5.80;;
12721;SDS011;6425;50.316;8.114;2022-08-19T16:42:01;6.30;;;5.90;;
12721;SDS011;6425;50.316;8.114;2022-08-19T16:47:04;6.60;;;5.97;;
12721;SDS011;6425;50.316;8.114;2022-08-19T16:52:04;5.97;;;5.57;;
12721;SDS011;6425;50.316;8.114;2022-08-19T16:57:05;6.60;;;6.20;;
12721;SDS011;6425;50.316;8.114;2022-08-19T17:02:10;8.07;;;7.07;;
12721;SDS011;6425;50.316;8.114;2022-08-19T17:07:11;7.77;;;7.10;;
12721;SDS011;6425;50.316;8.114;2022-08-19T17:12:14;7.20;;;6.67;;
12721;SDS011;6425;50.316;8.114;2022-08-19T17:17:16;8.03;;;7.23;;
12721;SDS011;6425;50.316;8.114;2022-08-19T17:22:17;8.03;;;7.43;;
12721;SDS011;6425;50.316;8.114;2022-08-19T17:27:18;8.10;;;7.40;;
12721;SDS011;6425;50.316;8.114;2022-08-19T17:32:20;8.80;;;7.90;;
12721;SDS011;6425;50.316;8.114;2022-08-19T17:37:20;7.10;;;6.50;;
12721;SDS011;6425;50.316;8.114;2022-08-19T17:42:21;8.07;;;7.47;;
12721;SDS011;6425;50.316;8.114;2022-08-19T17:47:23;6.50;;;5.90;;
12721;SDS011;6425;50.316;8.114;2022-08-19T17:52:24;8.10;;;7.03;;
12721;SDS011;6425;50.316;8.114;2022-08-19T17:57:25;8.40;;;7.47;;
12721;SDS011;6425;50.316;8.114;2022-08-19T18:02:27;8.33;;;7.57;;
12721;SDS011;6425;50.316;8.114;2022-08-19T18:07:28;8.93;;;7.80;;
12721;SDS011;6425;50.316;8.114;2022-08-19T18:12:28;8.00;;;7.20;;
12721;SDS011;6425;50.316;8.114;2022-08-19T18:17:30;9.23;;;7.60;;
12721;SDS011;6425;50.316;8.114;2022-08-19T18:22:32;8.60;;;7.67;;
12721;SDS011;6425;50.316;8.114;2022-08-19T18:27:36;10.57;;;8.00;;
12721;SDS011;6425;50.316;8.114;2022-08-19T18:32:38;15.93;;;8.63;;
12721;SDS011;6425;50.316;8.114;2022-08-19T18:37:39;11.47;;;7.20;;
12721;SDS011;6425;50.316;8.114;2022-08-19T18:42:41;9.00;;;7.93;;
12721;SDS011;6425;50.316;8.114;2022-08-19T18:47:50;10.17;;;8.10;;
12721;SDS011;6425;50.316;8.114;2022-08-19T18:52:50;8.13;;;7.30;;
12721;SDS011;6425;50.316;8.114;2022-08-19T18:57:51;13.27;;;7.23;;
12721;SDS011;6425;50.316;8.114;2022-08-19T19:02:55;10.10;;;7.80;;
12721;SDS011;6425;50.316;8.114;2022-08-19T19:07:56;9.63;;;6.70;;
12721;SDS011;6425;50.316;8.114;2022-08-19T19:12:56;8.63;;;6.10;;
12721;SDS011;6425;50.316;8.114;2022-08-19T19:17:58;11.03;;;6.20;;
12721;SDS011;6425;50.316;8.114;2022-08-19T19:22:59;7.63;;;5.83;;
12721;SDS011;6425;50.316;8.114;2022-08-19T19:27:59;8.93;;;5.53;;
12721;SDS011;6425;50.316;8.114;2022-08-19T19:33:01;8.53;;;5.67;;
12721;SDS011;6425;50.316;8.114;2022-08-19T19:38:02;10.17;;;5.30;;
12721;SDS011;6425;50.316;8.114;2022-08-19T19:43:02;6.03;;;4.97;;
12721;SDS011;6425;50.316;8.114;2022-08-19T19:48:04;5.93;;;5.33;;
12721;SDS011;6425;50.316;8.114;2022-08-19T19:53:05;10.60;;;6.00;;
12721;SDS011;6425;50.316;8.114;2022-08-19T19:58:05;10.13;;;5.80;;
12721;SDS011;6425;50.316;8.114;2022-08-19T20:15:04;6.87;;;4.67;;
12721;SDS011;6425;50.316;8.114;2022-08-19T20:27:04;4.43;;;4.03;;
12721;SDS011;6425;50.316;8.114;2022-08-19T20:38:15;4.10;;;2.73;;
12721;SDS011;6425;50.316;8.114;2022-08-19T20:43:35;6.73;;;2.80;;
12721;SDS011;6425;50.316;8.114;2022-08-19T20:49:24;4.07;;;2.80;;
12721;SDS011;6425;50.316;8.114;2022-08-19T20:54:35;3.00;;;2.70;;
12721;SDS011;6425;50.316;8.114;2022-08-19T21:00:00;4.53;;;2.37;;
12721;SDS011;6425;50.316;8.114;2022-08-19T21:05:13;4.00;;;2.40;;
12721;SDS011;6425;50.316;8.114;2022-08-19T21:10:32;3.67;;;2.40;;
12721;SDS011;6425;50.316;8.114;2022-08-19T21:15:40;16.90;;;3.17;;
12721;SDS011;6425;50.316;8.114;2022-08-19T21:20:42;11.57;;;3.13;;
12721;SDS011;6425;50.316;8.114;2022-08-19T21:25:54;4.43;;;2.53;;
12721;SDS011;6425;50.316;8.114;2022-08-19T21:31:07;2.47;;;2.27;;
12721;SDS011;6425;50.316;8.114;2022-08-19T21:36:26;2.30;;;2.20;;
12721;SDS011;6425;50.316;8.114;2022-08-19T21:41:42;2.83;;;2.00;;
12721;SDS011;6425;50.316;8.114;2022-08-19T21:46:42;3.07;;;1.93;;
12721;SDS011;6425;50.316;8.114;2022-08-19T21:51:43;4.07;;;2.00;;
12721;SDS011;6425;50.316;8.114;2022-08-19T21:56:54;2.57;;;2.37;;
12721;SDS011;6425;50.316;8.114;2022-08-19T22:01:55;3.17;;;1.90;;
12721;SDS011;6425;50.316;8.114;2022-08-19T22:06:58;2.17;;;1.97;;
12721;SDS011;6425;50.316;8.114;2022-08-19T22:12:20;2.20;;;2.00;;
12721;SDS011;6425;50.316;8.114;2022-08-19T22:17:30;5.13;;;2.40;;
12721;SDS011;6425;50.316;8.114;2022-08-19T22:27:58;3.93;;;2.90;;
12721;SDS011;6425;50.316;8.114;2022-08-19T22:33:02;3.83;;;2.83;;
12721;SDS011;6425;50.316;8.114;2022-08-19T22:38:10;14.10;;;3.30;;
12721;SDS011;6425;50.316;8.114;2022-08-19T22:43:14;3.30;;;2.73;;
12721;SDS011;6425;50.316;8.114;2022-08-19T22:48:23;2.93;;;2.60;;
12721;SDS011;6425;50.316;8.114;2022-08-19T22:53:35;4.33;;;2.97;;
12721;SDS011;6425;50.316;8.114;2022-08-19T22:58:42;3.13;;;2.80;;
12721;SDS011;6425;50.316;8.114;2022-08-19T23:03:46;3.70;;;2.90;;
12721;SDS011;6425;50.316;8.114;2022-08-19T23:08:51;4.70;;;3.00;;
12721;SDS011;6425;50.316;8.114;2022-08-19T23:13:54;4.37;;;3.60;;
12721;SDS011;6425;50.316;8.114;2022-08-19T23:18:58;4.60;;;3.07;;
12721;SDS011;6425;50.316;8.114;2022-08-19T23:24:02;4.70;;;3.20;;
12721;SDS011;6425;50.316;8.114;2022-08-19T23:29:07;4.27;;;2.80;;
12721;SDS011;6425;50.316;8.114;2022-08-19T23:34:08;6.30;;;3.23;;
12721;SDS011;6425;50.316;8.114;2022-08-19T23:39:11;3.17;;;2.87;;
12721;SDS011;6425;50.316;8.114;2022-08-19T23:44:18;3.90;;;2.50;;
12721;SDS011;6425;50.316;8.114;2022-08-19T23:49:22;3.07;;;2.53;;
12721;SDS011;6425;50.316;8.114;2022-08-19T23:54:26;3.80;;;2.53;;
12721;SDS011;6425;50.316;8.114;2022-08-19T23:59:29;3.27;;;2.50;;
